sensor_id;sensor_type;location;lat;lon;timestamp;P1;durP1;ratioP1;P2;durP2;ratioP2
4754;SDS011;2391;47.212;7.542;2023-04-24T00:00:11;0.40;;;0.40;;
4754;SDS011;2391;47.212;7.542;2023-04-24T00:02:39;0.50;;;0.40;;
4754;SDS011;2391;47.212;7.542;2023-04-24T00:05:05;0.97;;;0.40;;
4754;SDS011;2391;47.212;7.542;2023-04-24T00:07:33;0.33;;;0.33;;
4754;SDS011;2391;47.212;7.542;2023-04-24T00:09:59;0.40;;;0.40;;
4754;SDS011;2391;47.212;7.542;2023-04-24T00:12:25;1.83;;;0.50;;
4754;SDS011;2391;47.212;7.542;2023-04-24T00:14:52;1.50;;;0.37;;
4754;SDS011;2391;47.212;7.542;2023-04-24T00:17:18;0.40;;;0.40;;
4754;SDS011;2391;47.212;7.542;2023-04-24T00:19:45;0.50;;;0.40;;
4754;SDS011;2391;47.212;7.542;2023-04-24T00:22:12;0.93;;;0.50;;
4754;SDS011;2391;47.212;7.542;2023-04-24T00:24:38;0.83;;;0.40;;
4754;SDS011;2391;47.212;7.542;2023-04-24T00:27:04;1.03;;;0.30;;
4754;SDS011;2391;47.212;7.542;2023-04-24T00:29:30;0.47;;;0.40;;
4754;SDS011;2391;47.212;7.542;2023-04-24T00:31:56;0.40;;;0.30;;
4754;SDS011;2391;47.212;7.542;2023-04-24T00:34:22;0.40;;;0.40;;
4754;SDS011;2391;47.212;7.542;2023-04-24T00:36:48;0.27;;;0.27;;
4754;SDS011;2391;47.212;7.542;2023-04-24T00:39:18;0.30;;;0.30;;
4754;SDS011;2391;47.212;7.542;2023-04-24T00:41:44;0.40;;;0.40;;
4754;SDS011;2391;47.212;7.542;2023-04-24T00:44:11;0.33;;;0.33;;
4754;SDS011;2391;47.212;7.542;2023-04-24T00:46:37;0.47;;;0.43;;
4754;SDS011;2391;47.212;7.542;2023-04-24T00:49:04;0.40;;;0.40;;
4754;SDS011;2391;47.212;7.542;2023-04-24T00:51:31;0.80;;;0.50;;
4754;SDS011;2391;47.212;7.542;2023-04-24T00:53:58;0.50;;;0.30;;
4754;SDS011;2391;47.212;7.542;2023-04-24T00:56:25;0.77;;;0.50;;
4754;SDS011;2391;47.212;7.542;2023-04-24T00:58:51;1.27;;;0.40;;
4754;SDS011;2391;47.212;7.542;2023-04-24T01:01:17;5.03;;;0.40;;
4754;SDS011;2391;47.212;7.542;2023-04-24T01:03:46;0.33;;;0.33;;
4754;SDS011;2391;47.212;7.542;2023-04-24T01:06:12;0.30;;;0.30;;
4754;SDS011;2391;47.212;7.542;2023-04-24T01:08:39;4.03;;;0.40;;
4754;SDS011;2391;47.212;7.542;2023-04-24T01:11:05;2.33;;;0.40;;
4754;SDS011;2391;47.212;7.542;2023-04-24T01:13:31;0.40;;;0.30;;
4754;SDS011;2391;47.212;7.542;2023-04-24T01:15:58;1.50;;;0.60;;
4754;SDS011;2391;47.212;7.542;2023-04-24T01:18:24;1.37;;;0.50;;
4754;SDS011;2391;47.212;7.542;2023-04-24T01:20:53;0.40;;;0.40;;
4754;SDS011;2391;47.212;7.542;2023-04-24T01:23:22;1.33;;;0.57;;
4754;SDS011;2391;47.212;7.542;2023-04-24T01:25:48;0.67;;;0.50;;
4754;SDS011;2391;47.212;7.542;2023-04-24T01:28:15;0.50;;;0.50;;
4754;SDS011;2391;47.212;7.542;2023-04-24T01:30:42;0.40;;;0.40;;
4754;SDS011;2391;47.212;7.542;2023-04-24T01:33:09;0.50;;;0.50;;
4754;SDS011;2391;47.212;7.542;2023-04-24T01:35:35;0.43;;;0.43;;
4754;SDS011;2391;47.212;7.542;2023-04-24T01:38:03;0.50;;;0.50;;
4754;SDS011;2391;47.212;7.542;2023-04-24T01:40:31;0.70;;;0.50;;
4754;SDS011;2391;47.212;7.542;2023-04-24T01:42:58;1.13;;;0.50;;
4754;SDS011;2391;47.212;7.542;2023-04-24T01:45:24;0.50;;;0.50;;
4754;SDS011;2391;47.212;7.542;2023-04-24T01:47:50;0.83;;;0.60;;
4754;SDS011;2391;47.212;7.542;2023-04-24T01:50:16;0.60;;;0.60;;
4754;SDS011;2391;47.212;7.542;2023-04-24T01:52:43;0.40;;;0.40;;
4754;SDS011;2391;47.212;7.542;2023-04-24T01:55:10;0.53;;;0.50;;
4754;SDS011;2391;47.212;7.542;2023-04-24T01:57:36;0.50;;;0.50;;
4754;SDS011;2391;47.212;7.542;2023-04-24T02:00:02;0.53;;;0.53;;
4754;SDS011;2391;47.212;7.542;2023-04-24T02:02:30;0.50;;;0.50;;
4754;SDS011;2391;47.212;7.542;2023-04-24T02:04:57;1.00;;;0.50;;
4754;SDS011;2391;47.212;7.542;2023-04-24T02:07:22;0.50;;;0.50;;
4754;SDS011;2391;47.212;7.542;2023-04-24T02:09:48;0.50;;;0.50;;
4754;SDS011;2391;47.212;7.542;2023-04-24T02:12:14;0.60;;;0.50;;
4754;SDS011;2391;47.212;7.542;2023-04-24T02:14:43;2.10;;;0.50;;
4754;SDS011;2391;47.212;7.542;2023-04-24T02:17:09;0.53;;;0.53;;
4754;SDS011;2391;47.212;7.542;2023-04-24T02:19:37;0.57;;;0.50;;
4754;SDS011;2391;47.212;7.542;2023-04-24T02:22:03;0.50;;;0.50;;
4754;SDS011;2391;47.212;7.542;2023-04-24T02:24:28;0.50;;;0.50;;
4754;SDS011;2391;47.212;7.542;2023-04-24T02:26:54;0.40;;;0.40;;
4754;SDS011;2391;47.212;7.542;2023-04-24T02:29:21;0.60;;;0.60;;
4754;SDS011;2391;47.212;7.542;2023-04-24T02:31:47;0.60;;;0.43;;
4754;SDS011;2391;47.212;7.542;2023-04-24T02:34:12;0.77;;;0.50;;
4754;SDS011;2391;47.212;7.542;2023-04-24T02:36:41;0.50;;;0.50;;
4754;SDS011;2391;47.212;7.542;2023-04-24T02:39:07;0.40;;;0.40;;
4754;SDS011;2391;47.212;7.542;2023-04-24T02:41:33;0.40;;;0.40;;
4754;SDS011;2391;47.212;7.542;2023-04-24T02:43:59;1.50;;;0.40;;
4754;SDS011;2391;47.212;7.542;2023-04-24T02:46:25;0.30;;;0.30;;
4754;SDS011;2391;47.212;7.542;2023-04-24T02:48:50;0.57;;;0.43;;
4754;SDS011;2391;47.212;7.542;2023-04-24T02:51:16;0.50;;;0.50;;
4754;SDS011;2391;47.212;7.542;2023-04-24T02:53:42;0.97;;;0.47;;
4754;SDS011;2391;47.212;7.542;2023-04-24T02:56:08;0.30;;;0.30;;
4754;SDS011;2391;47.212;7.542;2023-04-24T02:58:34;0.40;;;0.40;;
4754;SDS011;2391;47.212;7.542;2023-04-24T03:01:01;1.27;;;0.50;;
4754;SDS011;2391;47.212;7.542;2023-04-24T03:03:26;0.50;;;0.50;;
4754;SDS011;2391;47.212;7.542;2023-04-24T03:05:52;0.80;;;0.43;;
4754;SDS011;2391;47.212;7.542;2023-04-24T03:08:18;0.50;;;0.40;;
4754;SDS011;2391;47.212;7.542;2023-04-24T03:10:43;0.50;;;0.50;;
4754;SDS011;2391;47.212;7.542;2023-04-24T03:13:09;0.40;;;0.40;;
4754;SDS011;2391;47.212;7.542;2023-04-24T03:15:35;0.47;;;0.47;;
4754;SDS011;2391;47.212;7.542;2023-04-24T03:18:01;0.50;;;0.50;;
4754;SDS011;2391;47.212;7.542;2023-04-24T03:20:28;0.77;;;0.50;;
4754;SDS011;2391;47.212;7.542;2023-04-24T03:22:53;0.50;;;0.40;;
4754;SDS011;2391;47.212;7.542;2023-04-24T03:25:19;0.40;;;0.40;;
4754;SDS011;2391;47.212;7.542;2023-04-24T03:27:45;0.50;;;0.50;;
4754;SDS011;2391;47.212;7.542;2023-04-24T03:30:11;0.57;;;0.40;;
4754;SDS011;2391;47.212;7.542;2023-04-24T03:32:37;0.50;;;0.50;;
4754;SDS011;2391;47.212;7.542;2023-04-24T03:35:05;0.50;;;0.40;;
4754;SDS011;2391;47.212;7.542;2023-04-24T03:37:33;0.40;;;0.40;;
4754;SDS011;2391;47.212;7.542;2023-04-24T03:39:59;0.30;;;0.30;;
4754;SDS011;2391;47.212;7.542;2023-04-24T03:42:26;0.40;;;0.40;;
4754;SDS011;2391;47.212;7.542;2023-04-24T03:44:52;0.50;;;0.50;;
4754;SDS011;2391;47.212;7.542;2023-04-24T03:47:17;0.40;;;0.40;;
4754;SDS011;2391;47.212;7.542;2023-04-24T03:49:43;0.40;;;0.40;;
4754;SDS011;2391;47.212;7.542;2023-04-24T03:52:09;0.33;;;0.33;;
4754;SDS011;2391;47.212;7.542;2023-04-24T03:54:35;0.87;;;0.40;;
4754;SDS011;2391;47.212;7.542;2023-04-24T03:57:00;0.40;;;0.40;;
4754;SDS011;2391;47.212;7.542;2023-04-24T03:59:31;0.87;;;0.40;;
4754;SDS011;2391;47.212;7.542;2023-04-24T04:01:56;1.20;;;0.50;;
4754;SDS011;2391;47.212;7.542;2023-04-24T04:04:22;0.70;;;0.40;;
4754;SDS011;2391;47.212;7.542;2023-04-24T04:06:48;2.33;;;0.40;;
4754;SDS011;2391;47.212;7.542;2023-04-24T04:09:15;0.47;;;0.40;;
4754;SDS011;2391;47.212;7.542;2023-04-24T04:11:41;0.40;;;0.40;;
4754;SDS011;2391;47.212;7.542;2023-04-24T04:14:07;0.40;;;0.40;;
4754;SDS011;2391;47.212;7.542;2023-04-24T04:16:32;1.43;;;0.70;;
4754;SDS011;2391;47.212;7.542;2023-04-24T04:18:58;0.97;;;0.50;;
4754;SDS011;2391;47.212;7.542;2023-04-24T04:21:24;3.80;;;0.40;;
4754;SDS011;2391;47.212;7.542;2023-04-24T04:23:50;0.40;;;0.40;;
4754;SDS011;2391;47.212;7.542;2023-04-24T04:26:16;0.60;;;0.50;;
4754;SDS011;2391;47.212;7.542;2023-04-24T04:28:41;0.43;;;0.43;;
4754;SDS011;2391;47.212;7.542;2023-04-24T04:31:09;0.50;;;0.50;;
4754;SDS011;2391;47.212;7.542;2023-04-24T04:33:35;0.40;;;0.40;;
4754;SDS011;2391;47.212;7.542;2023-04-24T04:36:02;0.50;;;0.50;;
4754;SDS011;2391;47.212;7.542;2023-04-24T04:38:29;0.67;;;0.50;;
4754;SDS011;2391;47.212;7.542;2023-04-24T04:40:55;0.60;;;0.50;;
4754;SDS011;2391;47.212;7.542;2023-04-24T04:43:30;1.27;;;0.63;;
4754;SDS011;2391;47.212;7.542;2023-04-24T04:45:57;0.50;;;0.47;;
4754;SDS011;2391;47.212;7.542;2023-04-24T04:48:23;0.60;;;0.40;;
4754;SDS011;2391;47.212;7.542;2023-04-24T04:50:49;0.47;;;0.47;;
4754;SDS011;2391;47.212;7.542;2023-04-24T04:53:15;0.53;;;0.53;;
4754;SDS011;2391;47.212;7.542;2023-04-24T04:55:41;2.30;;;0.90;;
4754;SDS011;2391;47.212;7.542;2023-04-24T04:58:06;2.70;;;0.50;;
4754;SDS011;2391;47.212;7.542;2023-04-24T05:00:32;0.50;;;0.50;;
4754;SDS011;2391;47.212;7.542;2023-04-24T05:03:00;0.63;;;0.50;;
4754;SDS011;2391;47.212;7.542;2023-04-24T05:05:25;0.73;;;0.50;;
4754;SDS011;2391;47.212;7.542;2023-04-24T05:07:52;0.60;;;0.60;;
4754;SDS011;2391;47.212;7.542;2023-04-24T05:10:17;0.87;;;0.53;;
4754;SDS011;2391;47.212;7.542;2023-04-24T05:12:43;0.67;;;0.67;;
4754;SDS011;2391;47.212;7.542;2023-04-24T05:15:09;0.60;;;0.60;;
4754;SDS011;2391;47.212;7.542;2023-04-24T05:17:35;0.80;;;0.60;;
4754;SDS011;2391;47.212;7.542;2023-04-24T05:20:02;0.70;;;0.70;;
4754;SDS011;2391;47.212;7.542;2023-04-24T05:22:30;2.20;;;0.70;;
4754;SDS011;2391;47.212;7.542;2023-04-24T05:24:56;0.60;;;0.60;;
4754;SDS011;2391;47.212;7.542;2023-04-24T05:27:22;3.73;;;0.60;;
4754;SDS011;2391;47.212;7.542;2023-04-24T05:29:48;0.70;;;0.70;;
4754;SDS011;2391;47.212;7.542;2023-04-24T05:32:14;1.10;;;0.70;;
4754;SDS011;2391;47.212;7.542;2023-04-24T05:34:39;0.70;;;0.70;;
4754;SDS011;2391;47.212;7.542;2023-04-24T05:37:05;0.90;;;0.90;;
4754;SDS011;2391;47.212;7.542;2023-04-24T05:39:33;0.80;;;0.80;;
4754;SDS011;2391;47.212;7.542;2023-04-24T05:41:59;0.70;;;0.70;;
4754;SDS011;2391;47.212;7.542;2023-04-24T05:44:26;1.00;;;0.90;;
4754;SDS011;2391;47.212;7.542;2023-04-24T05:46:52;1.17;;;0.80;;
4754;SDS011;2391;47.212;7.542;2023-04-24T05:49:18;1.10;;;0.97;;
4754;SDS011;2391;47.212;7.542;2023-04-24T05:51:44;0.70;;;0.70;;
4754;SDS011;2391;47.212;7.542;2023-04-24T05:54:10;0.90;;;0.90;;
4754;SDS011;2391;47.212;7.542;2023-04-24T05:56:37;1.40;;;1.00;;
4754;SDS011;2391;47.212;7.542;2023-04-24T05:59:04;0.87;;;0.87;;
4754;SDS011;2391;47.212;7.542;2023-04-24T06:01:30;1.30;;;1.20;;
4754;SDS011;2391;47.212;7.542;2023-04-24T06:03:56;1.20;;;1.10;;
4754;SDS011;2391;47.212;7.542;2023-04-24T06:06:23;0.90;;;0.90;;
4754;SDS011;2391;47.212;7.542;2023-04-24T06:08:49;0.80;;;0.80;;
4754;SDS011;2391;47.212;7.542;2023-04-24T06:11:15;1.93;;;0.90;;
4754;SDS011;2391;47.212;7.542;2023-04-24T06:13:41;0.83;;;0.83;;
4754;SDS011;2391;47.212;7.542;2023-04-24T06:16:07;0.70;;;0.70;;
4754;SDS011;2391;47.212;7.542;2023-04-24T06:18:33;0.87;;;0.60;;
4754;SDS011;2391;47.212;7.542;2023-04-24T06:20:59;1.17;;;1.00;;
4754;SDS011;2391;47.212;7.542;2023-04-24T06:23:24;2.00;;;0.80;;
4754;SDS011;2391;47.212;7.542;2023-04-24T06:25:50;2.60;;;0.80;;
4754;SDS011;2391;47.212;7.542;2023-04-24T06:28:16;0.70;;;0.70;;
4754;SDS011;2391;47.212;7.542;2023-04-24T06:30:42;3.07;;;1.00;;
4754;SDS011;2391;47.212;7.542;2023-04-24T06:33:09;1.87;;;0.80;;
4754;SDS011;2391;47.212;7.542;2023-04-24T06:35:35;0.87;;;0.70;;
4754;SDS011;2391;47.212;7.542;2023-04-24T06:38:01;2.43;;;0.70;;
4754;SDS011;2391;47.212;7.542;2023-04-24T06:40:27;0.70;;;0.70;;
4754;SDS011;2391;47.212;7.542;2023-04-24T06:42:53;1.37;;;0.60;;
4754;SDS011;2391;47.212;7.542;2023-04-24T06:45:18;0.60;;;0.60;;
4754;SDS011;2391;47.212;7.542;2023-04-24T06:47:44;0.53;;;0.53;;
4754;SDS011;2391;47.212;7.542;2023-04-24T06:50:10;0.93;;;0.50;;
4754;SDS011;2391;47.212;7.542;2023-04-24T06:52:36;0.70;;;0.70;;
4754;SDS011;2391;47.212;7.542;2023-04-24T06:55:02;0.93;;;0.63;;
4754;SDS011;2391;47.212;7.542;2023-04-24T06:57:29;2.13;;;0.70;;
4754;SDS011;2391;47.212;7.542;2023-04-24T06:59:55;0.60;;;0.60;;
4754;SDS011;2391;47.212;7.542;2023-04-24T07:02:21;0.73;;;0.67;;
4754;SDS011;2391;47.212;7.542;2023-04-24T07:04:47;2.23;;;0.70;;
4754;SDS011;2391;47.212;7.542;2023-04-24T07:07:13;1.10;;;0.80;;
4754;SDS011;2391;47.212;7.542;2023-04-24T07:09:41;1.00;;;0.80;;
4754;SDS011;2391;47.212;7.542;2023-04-24T07:12:08;0.67;;;0.63;;
4754;SDS011;2391;47.212;7.542;2023-04-24T07:14:36;2.00;;;0.70;;
4754;SDS011;2391;47.212;7.542;2023-04-24T07:17:05;0.63;;;0.63;;
4754;SDS011;2391;47.212;7.542;2023-04-24T07:19:32;0.60;;;0.60;;
4754;SDS011;2391;47.212;7.542;2023-04-24T07:22:01;1.27;;;0.70;;
4754;SDS011;2391;47.212;7.542;2023-04-24T07:24:27;1.47;;;0.60;;
4754;SDS011;2391;47.212;7.542;2023-04-24T07:26:53;0.93;;;0.70;;
4754;SDS011;2391;47.212;7.542;2023-04-24T07:29:19;0.50;;;0.50;;
4754;SDS011;2391;47.212;7.542;2023-04-24T07:31:46;0.90;;;0.60;;
4754;SDS011;2391;47.212;7.542;2023-04-24T07:34:12;0.77;;;0.77;;
4754;SDS011;2391;47.212;7.542;2023-04-24T07:36:38;2.30;;;0.80;;
4754;SDS011;2391;47.212;7.542;2023-04-24T07:39:04;2.97;;;0.70;;
4754;SDS011;2391;47.212;7.542;2023-04-24T07:41:31;3.40;;;0.80;;
4754;SDS011;2391;47.212;7.542;2023-04-24T07:43:57;0.80;;;0.60;;
4754;SDS011;2391;47.212;7.542;2023-04-24T07:46:23;0.70;;;0.60;;
4754;SDS011;2391;47.212;7.542;2023-04-24T07:48:49;3.27;;;0.70;;
4754;SDS011;2391;47.212;7.542;2023-04-24T07:51:15;2.73;;;0.67;;
4754;SDS011;2391;47.212;7.542;2023-04-24T07:53:42;1.90;;;0.90;;
4754;SDS011;2391;47.212;7.542;2023-04-24T07:56:08;4.53;;;0.80;;
4754;SDS011;2391;47.212;7.542;2023-04-24T07:58:34;1.27;;;0.73;;
4754;SDS011;2391;47.212;7.542;2023-04-24T08:01:00;0.57;;;0.57;;
4754;SDS011;2391;47.212;7.542;2023-04-24T08:03:26;0.70;;;0.70;;
4754;SDS011;2391;47.212;7.542;2023-04-24T08:05:52;2.20;;;0.90;;
4754;SDS011;2391;47.212;7.542;2023-04-24T08:08:19;1.10;;;0.80;;
4754;SDS011;2391;47.212;7.542;2023-04-24T08:10:46;0.80;;;0.73;;
4754;SDS011;2391;47.212;7.542;2023-04-24T08:13:12;1.30;;;0.90;;
4754;SDS011;2391;47.212;7.542;2023-04-24T08:15:38;0.77;;;0.77;;
4754;SDS011;2391;47.212;7.542;2023-04-24T08:18:04;1.20;;;0.80;;
4754;SDS011;2391;47.212;7.542;2023-04-24T08:20:30;0.80;;;0.80;;
4754;SDS011;2391;47.212;7.542;2023-04-24T08:22:55;1.63;;;1.53;;
4754;SDS011;2391;47.212;7.542;2023-04-24T08:25:21;0.83;;;0.80;;
4754;SDS011;2391;47.212;7.542;2023-04-24T08:27:48;3.27;;;1.47;;
4754;SDS011;2391;47.212;7.542;2023-04-24T08:30:14;2.53;;;0.87;;
4754;SDS011;2391;47.212;7.542;2023-04-24T08:32:40;1.37;;;0.80;;
4754;SDS011;2391;47.212;7.542;2023-04-24T08:35:07;3.63;;;1.37;;
4754;SDS011;2391;47.212;7.542;2023-04-24T08:37:34;1.97;;;0.83;;
4754;SDS011;2391;47.212;7.542;2023-04-24T08:40:01;0.93;;;0.73;;
4754;SDS011;2391;47.212;7.542;2023-04-24T08:42:32;0.70;;;0.70;;
4754;SDS011;2391;47.212;7.542;2023-04-24T08:44:59;0.70;;;0.70;;
4754;SDS011;2391;47.212;7.542;2023-04-24T08:47:25;1.87;;;0.73;;
4754;SDS011;2391;47.212;7.542;2023-04-24T08:49:52;0.87;;;0.80;;
4754;SDS011;2391;47.212;7.542;2023-04-24T08:52:19;1.93;;;0.70;;
4754;SDS011;2391;47.212;7.542;2023-04-24T08:54:47;0.80;;;0.80;;
4754;SDS011;2391;47.212;7.542;2023-04-24T08:57:14;2.30;;;0.90;;
4754;SDS011;2391;47.212;7.542;2023-04-24T08:59:40;1.77;;;1.00;;
4754;SDS011;2391;47.212;7.542;2023-04-24T09:02:09;1.53;;;0.70;;
4754;SDS011;2391;47.212;7.542;2023-04-24T09:04:36;1.03;;;0.70;;
4754;SDS011;2391;47.212;7.542;2023-04-24T09:07:03;0.70;;;0.70;;
4754;SDS011;2391;47.212;7.542;2023-04-24T09:09:31;2.27;;;0.90;;
4754;SDS011;2391;47.212;7.542;2023-04-24T09:11:58;1.47;;;0.80;;
4754;SDS011;2391;47.212;7.542;2023-04-24T09:14:24;0.80;;;0.80;;
4754;SDS011;2391;47.212;7.542;2023-04-24T09:16:50;0.70;;;0.70;;
4754;SDS011;2391;47.212;7.542;2023-04-24T09:19:16;0.70;;;0.70;;
4754;SDS011;2391;47.212;7.542;2023-04-24T09:21:45;2.00;;;1.17;;
4754;SDS011;2391;47.212;7.542;2023-04-24T09:24:16;0.80;;;0.80;;
4754;SDS011;2391;47.212;7.542;2023-04-24T09:26:45;0.80;;;0.70;;
4754;SDS011;2391;47.212;7.542;2023-04-24T09:29:18;0.90;;;0.90;;
4754;SDS011;2391;47.212;7.542;2023-04-24T09:31:44;0.80;;;0.70;;
4754;SDS011;2391;47.212;7.542;2023-04-24T09:34:11;2.50;;;0.67;;
4754;SDS011;2391;47.212;7.542;2023-04-24T09:36:38;1.13;;;0.70;;
4754;SDS011;2391;47.212;7.542;2023-04-24T09:39:10;0.70;;;0.70;;
4754;SDS011;2391;47.212;7.542;2023-04-24T09:42:00;2.23;;;0.50;;
4754;SDS011;2391;47.212;7.542;2023-04-24T09:44:16;0.87;;;0.60;;
4754;SDS011;2391;47.212;7.542;2023-04-24T09:46:48;0.63;;;0.60;;
4754;SDS011;2391;47.212;7.542;2023-04-24T09:49:16;0.80;;;0.50;;
4754;SDS011;2391;47.212;7.542;2023-04-24T09:51:44;1.00;;;0.60;;
4754;SDS011;2391;47.212;7.542;2023-04-24T09:54:16;0.53;;;0.53;;
4754;SDS011;2391;47.212;7.542;2023-04-24T09:56:45;0.90;;;0.60;;
4754;SDS011;2391;47.212;7.542;2023-04-24T09:59:14;1.33;;;0.60;;
4754;SDS011;2391;47.212;7.542;2023-04-24T10:01:41;0.73;;;0.67;;
4754;SDS011;2391;47.212;7.542;2023-04-24T10:04:15;1.30;;;0.87;;
4754;SDS011;2391;47.212;7.542;2023-04-24T10:06:46;0.80;;;0.70;;
4754;SDS011;2391;47.212;7.542;2023-04-24T10:09:21;0.80;;;0.80;;
4754;SDS011;2391;47.212;7.542;2023-04-24T10:11:45;1.83;;;0.60;;
4754;SDS011;2391;47.212;7.542;2023-04-24T10:14:14;2.93;;;0.70;;
4754;SDS011;2391;47.212;7.542;2023-04-24T10:16:41;1.50;;;0.80;;
4754;SDS011;2391;47.212;7.542;2023-04-24T10:19:07;0.90;;;0.70;;
4754;SDS011;2391;47.212;7.542;2023-04-24T10:21:34;0.60;;;0.60;;
4754;SDS011;2391;47.212;7.542;2023-04-24T10:24:00;0.63;;;0.63;;
4754;SDS011;2391;47.212;7.542;2023-04-24T10:26:28;2.00;;;0.60;;
4754;SDS011;2391;47.212;7.542;2023-04-24T10:28:54;0.73;;;0.73;;
4754;SDS011;2391;47.212;7.542;2023-04-24T10:31:22;0.97;;;0.70;;
4754;SDS011;2391;47.212;7.542;2023-04-24T10:33:48;1.37;;;0.70;;
4754;SDS011;2391;47.212;7.542;2023-04-24T10:36:22;1.00;;;0.90;;
4754;SDS011;2391;47.212;7.542;2023-04-24T10:38:52;0.60;;;0.60;;
4754;SDS011;2391;47.212;7.542;2023-04-24T10:41:20;1.10;;;0.73;;
4754;SDS011;2391;47.212;7.542;2023-04-24T10:43:47;0.60;;;0.60;;
4754;SDS011;2391;47.212;7.542;2023-04-24T10:46:21;0.80;;;0.80;;
4754;SDS011;2391;47.212;7.542;2023-04-24T10:48:53;1.33;;;0.80;;
4754;SDS011;2391;47.212;7.542;2023-04-24T10:51:21;0.70;;;0.70;;
4754;SDS011;2391;47.212;7.542;2023-04-24T10:53:49;1.07;;;0.73;;
4754;SDS011;2391;47.212;7.542;2023-04-24T10:56:16;0.83;;;0.80;;
4754;SDS011;2391;47.212;7.542;2023-04-24T10:58:43;2.97;;;0.90;;
4754;SDS011;2391;47.212;7.542;2023-04-24T11:01:24;2.03;;;0.70;;
4754;SDS011;2391;47.212;7.542;2023-04-24T11:03:56;0.80;;;0.60;;
4754;SDS011;2391;47.212;7.542;2023-04-24T11:06:29;1.43;;;0.90;;
4754;SDS011;2391;47.212;7.542;2023-04-24T11:09:06;5.07;;;0.80;;
4754;SDS011;2391;47.212;7.542;2023-04-24T11:11:33;2.53;;;0.80;;
4754;SDS011;2391;47.212;7.542;2023-04-24T11:14:01;0.60;;;0.60;;
4754;SDS011;2391;47.212;7.542;2023-04-24T11:21:39;0.90;;;0.90;;
4754;SDS011;2391;47.212;7.542;2023-04-24T11:26:54;1.27;;;0.97;;
4754;SDS011;2391;47.212;7.542;2023-04-24T11:29:22;1.07;;;0.90;;
4754;SDS011;2391;47.212;7.542;2023-04-24T11:31:48;2.07;;;0.80;;
4754;SDS011;2391;47.212;7.542;2023-04-24T11:34:16;1.50;;;0.80;;
4754;SDS011;2391;47.212;7.542;2023-04-24T11:36:46;1.30;;;0.93;;
4754;SDS011;2391;47.212;7.542;2023-04-24T11:39:13;2.60;;;0.77;;
4754;SDS011;2391;47.212;7.542;2023-04-24T11:41:40;0.77;;;0.77;;
4754;SDS011;2391;47.212;7.542;2023-04-24T11:44:06;1.37;;;1.10;;
4754;SDS011;2391;47.212;7.542;2023-04-24T11:46:33;6.73;;;1.30;;
4754;SDS011;2391;47.212;7.542;2023-04-24T11:48:59;2.20;;;0.90;;
4754;SDS011;2391;47.212;7.542;2023-04-24T11:51:26;2.40;;;0.70;;
4754;SDS011;2391;47.212;7.542;2023-04-24T11:53:54;1.33;;;0.77;;
4754;SDS011;2391;47.212;7.542;2023-04-24T11:56:21;2.57;;;1.03;;
4754;SDS011;2391;47.212;7.542;2023-04-24T11:58:48;2.20;;;0.70;;
4754;SDS011;2391;47.212;7.542;2023-04-24T12:01:14;2.00;;;0.80;;
4754;SDS011;2391;47.212;7.542;2023-04-24T12:03:40;1.43;;;0.70;;
4754;SDS011;2391;47.212;7.542;2023-04-24T12:06:08;2.70;;;1.20;;
4754;SDS011;2391;47.212;7.542;2023-04-24T12:08:36;0.77;;;0.77;;
4754;SDS011;2391;47.212;7.542;2023-04-24T12:11:02;0.63;;;0.63;;
4754;SDS011;2391;47.212;7.542;2023-04-24T12:13:30;1.63;;;0.80;;
4754;SDS011;2391;47.212;7.542;2023-04-24T12:15:56;2.40;;;0.80;;
4754;SDS011;2391;47.212;7.542;2023-04-24T12:18:23;2.10;;;0.77;;
4754;SDS011;2391;47.212;7.542;2023-04-24T12:20:49;0.70;;;0.70;;
4754;SDS011;2391;47.212;7.542;2023-04-24T12:23:15;2.17;;;0.70;;
4754;SDS011;2391;47.212;7.542;2023-04-24T12:25:43;0.87;;;0.83;;
4754;SDS011;2391;47.212;7.542;2023-04-24T12:28:10;0.90;;;0.70;;
4754;SDS011;2391;47.212;7.542;2023-04-24T12:30:44;2.10;;;0.80;;
4754;SDS011;2391;47.212;7.542;2023-04-24T12:33:17;1.10;;;0.87;;
4754;SDS011;2391;47.212;7.542;2023-04-24T12:35:45;0.80;;;0.80;;
4754;SDS011;2391;47.212;7.542;2023-04-24T12:38:11;1.83;;;0.90;;
4754;SDS011;2391;47.212;7.542;2023-04-24T12:40:39;1.43;;;0.70;;
4754;SDS011;2391;47.212;7.542;2023-04-24T12:43:19;1.40;;;0.83;;
4754;SDS011;2391;47.212;7.542;2023-04-24T12:45:47;0.60;;;0.60;;
4754;SDS011;2391;47.212;7.542;2023-04-24T12:48:13;1.10;;;0.70;;
4754;SDS011;2391;47.212;7.542;2023-04-24T12:50:42;0.97;;;0.77;;
4754;SDS011;2391;47.212;7.542;2023-04-24T12:53:09;0.63;;;0.63;;
4754;SDS011;2391;47.212;7.542;2023-04-24T12:55:36;2.63;;;0.70;;
4754;SDS011;2391;47.212;7.542;2023-04-24T12:58:02;1.47;;;1.00;;
4754;SDS011;2391;47.212;7.542;2023-04-24T13:00:28;2.20;;;0.80;;
4754;SDS011;2391;47.212;7.542;2023-04-24T13:02:54;0.60;;;0.60;;
4754;SDS011;2391;47.212;7.542;2023-04-24T13:05:20;0.87;;;0.63;;
4754;SDS011;2391;47.212;7.542;2023-04-24T13:07:46;0.97;;;0.60;;
4754;SDS011;2391;47.212;7.542;2023-04-24T13:10:12;1.00;;;0.70;;
4754;SDS011;2391;47.212;7.542;2023-04-24T13:12:38;1.33;;;0.70;;
4754;SDS011;2391;47.212;7.542;2023-04-24T13:15:06;2.33;;;0.67;;
4754;SDS011;2391;47.212;7.542;2023-04-24T13:17:32;1.00;;;0.63;;
4754;SDS011;2391;47.212;7.542;2023-04-24T13:19:58;0.60;;;0.60;;
4754;SDS011;2391;47.212;7.542;2023-04-24T13:22:24;1.53;;;0.73;;
4754;SDS011;2391;47.212;7.542;2023-04-24T13:24:50;1.70;;;0.80;;
4754;SDS011;2391;47.212;7.542;2023-04-24T13:27:16;1.33;;;0.70;;
4754;SDS011;2391;47.212;7.542;2023-04-24T13:29:43;1.27;;;0.80;;
4754;SDS011;2391;47.212;7.542;2023-04-24T13:32:08;1.90;;;0.70;;
4754;SDS011;2391;47.212;7.542;2023-04-24T13:34:35;1.00;;;1.00;;
4754;SDS011;2391;47.212;7.542;2023-04-24T13:37:02;1.23;;;0.80;;
4754;SDS011;2391;47.212;7.542;2023-04-24T13:39:33;1.00;;;1.00;;
4754;SDS011;2391;47.212;7.542;2023-04-24T13:41:59;1.23;;;0.80;;
4754;SDS011;2391;47.212;7.542;2023-04-24T13:44:25;0.90;;;0.90;;
4754;SDS011;2391;47.212;7.542;2023-04-24T13:46:51;2.80;;;0.63;;
4754;SDS011;2391;47.212;7.542;2023-04-24T13:49:20;1.10;;;0.80;;
4754;SDS011;2391;47.212;7.542;2023-04-24T13:51:46;1.47;;;0.90;;
4754;SDS011;2391;47.212;7.542;2023-04-24T13:54:13;1.67;;;0.80;;
4754;SDS011;2391;47.212;7.542;2023-04-24T13:56:39;1.57;;;0.70;;
4754;SDS011;2391;47.212;7.542;2023-04-24T13:59:05;1.73;;;0.80;;
4754;SDS011;2391;47.212;7.542;2023-04-24T14:01:34;1.63;;;0.80;;
4754;SDS011;2391;47.212;7.542;2023-04-24T14:04:00;1.47;;;0.90;;
4754;SDS011;2391;47.212;7.542;2023-04-24T14:06:26;3.00;;;0.90;;
4754;SDS011;2391;47.212;7.542;2023-04-24T14:08:52;0.80;;;0.80;;
4754;SDS011;2391;47.212;7.542;2023-04-24T14:11:18;0.80;;;0.73;;
4754;SDS011;2391;47.212;7.542;2023-04-24T14:13:44;2.30;;;0.77;;
4754;SDS011;2391;47.212;7.542;2023-04-24T14:16:11;1.83;;;0.80;;
4754;SDS011;2391;47.212;7.542;2023-04-24T14:18:37;2.10;;;0.73;;
4754;SDS011;2391;47.212;7.542;2023-04-24T14:21:03;1.27;;;0.90;;
4754;SDS011;2391;47.212;7.542;2023-04-24T14:23:29;0.80;;;0.80;;
4754;SDS011;2391;47.212;7.542;2023-04-24T14:25:56;0.63;;;0.60;;
4754;SDS011;2391;47.212;7.542;2023-04-24T14:28:23;1.90;;;1.00;;
4754;SDS011;2391;47.212;7.542;2023-04-24T14:30:50;1.00;;;0.80;;
4754;SDS011;2391;47.212;7.542;2023-04-24T14:33:15;0.80;;;0.80;;
4754;SDS011;2391;47.212;7.542;2023-04-24T14:35:41;1.43;;;0.90;;
4754;SDS011;2391;47.212;7.542;2023-04-24T14:38:08;1.63;;;0.77;;
4754;SDS011;2391;47.212;7.542;2023-04-24T14:40:34;1.93;;;0.77;;
4754;SDS011;2391;47.212;7.542;2023-04-24T14:43:00;1.03;;;0.90;;
4754;SDS011;2391;47.212;7.542;2023-04-24T14:45:26;0.83;;;0.83;;
4754;SDS011;2391;47.212;7.542;2023-04-24T14:47:53;2.10;;;0.97;;
4754;SDS011;2391;47.212;7.542;2023-04-24T14:50:19;2.73;;;1.00;;
4754;SDS011;2391;47.212;7.542;2023-04-24T14:52:45;1.77;;;0.90;;
4754;SDS011;2391;47.212;7.542;2023-04-24T14:55:11;1.43;;;1.00;;
4754;SDS011;2391;47.212;7.542;2023-04-24T14:57:37;1.03;;;0.90;;
4754;SDS011;2391;47.212;7.542;2023-04-24T15:00:04;3.70;;;1.07;;
4754;SDS011;2391;47.212;7.542;2023-04-24T15:02:33;1.50;;;0.70;;
4754;SDS011;2391;47.212;7.542;2023-04-24T15:04:59;0.87;;;0.87;;
4754;SDS011;2391;47.212;7.542;2023-04-24T15:07:25;1.23;;;1.00;;
4754;SDS011;2391;47.212;7.542;2023-04-24T15:09:50;1.60;;;1.50;;
4754;SDS011;2391;47.212;7.542;2023-04-24T15:12:16;1.10;;;1.00;;
4754;SDS011;2391;47.212;7.542;2023-04-24T15:14:42;1.53;;;1.00;;
4754;SDS011;2391;47.212;7.542;2023-04-24T15:17:08;2.80;;;1.00;;
4754;SDS011;2391;47.212;7.542;2023-04-24T15:19:34;2.50;;;0.80;;